Time;durP1;ratioP1;P1;durP2;ratioP2;P2;SDS_P1;SDS_P2;PMS_P1;PMS_P2;Temp;Humidity;BMP_temperature;BMP_pressure;BME280_temperature;BME280_humidity;BME280_pressure;Samples;Min_cycle;Max_cycle;Signal;HPM_P1;HPM_P2
2022/06/17 00:00:45;;;;;;;68.10;52.35;;;24.50;55.50;;;;;;4937522;28;90779;-71
2022/06/17 00:03:11;;;;;;;66.13;51.85;;;24.50;55.60;;;;;;4949978;28;90149;-71
2022/06/17 00:05:37;;;;;;;66.25;52.00;;;24.50;55.50;;;;;;4941730;28;90888;-71
2022/06/17 00:08:04;;;;;;;66.43;51.92;;;24.50;55.60;;;;;;4955130;28;92844;-71
2022/06/17 00:10:30;;;;;;;66.05;51.85;;;24.40;55.50;;;;;;4946735;28;91042;-71
2022/06/17 00:12:56;;;;;;;66.10;51.88;;;24.40;55.60;;;;;;4951045;28;90785;-71
2022/06/17 00:15:21;;;;;;;65.80;51.80;;;24.40;55.50;;;;;;4944894;28;90401;-71
2022/06/17 00:17:53;;;;;;;66.75;52.17;;;24.40;55.60;;;;;;4947045;28;90588;-71
2022/06/17 00:20:22;;;;;;;66.20;51.97;;;24.40;55.60;;;;;;4944891;28;92805;-71
2022/06/17 00:22:48;;;;;;;66.68;52.30;;;24.40;55.60;;;;;;4954067;28;90372;-71
2022/06/17 00:25:25;;;;;;;66.65;52.10;;;24.40;55.70;;;;;;4945848;28;89832;-71
2022/06/17 00:27:51;;;;;;;66.10;51.90;;;24.40;55.80;;;;;;4944436;28;89889;-71
2022/06/17 00:30:20;;;;;;;65.97;51.85;;;24.40;55.80;;;;;;4944527;28;90618;-71
2022/06/17 00:32:46;;;;;;;67.13;51.90;;;24.40;55.70;;;;;;4954093;28;91436;-71
2022/06/17 00:35:13;;;;;;;66.40;52.00;;;24.30;55.60;;;;;;4948377;28;90900;-71
2022/06/17 00:37:41;;;;;;;66.25;52.13;;;24.30;55.80;;;;;;4960792;28;89565;-72
2022/06/17 00:40:27;;;;;;;66.43;51.95;;;24.20;55.90;;;;;;4933239;28;90171;-72
2022/06/17 00:42:54;;;;;;;65.97;51.85;;;24.20;55.90;;;;;;4954658;28;91468;-71
2022/06/17 00:45:31;;;;;;;66.53;51.92;;;24.20;55.90;;;;;;4952424;28;92791;-71
2022/06/17 00:48:18;;;;;;;66.55;51.95;;;24.20;55.90;;;;;;4958569;28;90040;-71
2022/06/17 00:51:24;;;;;;;66.55;51.85;;;24.20;56.00;;;;;;4946236;28;89725;-71
2022/06/17 00:53:55;;;;;;;66.10;51.83;;;24.10;55.80;;;;;;4932599;28;90847;-72
2022/06/17 00:56:25;;;;;;;68.18;52.22;;;24.20;56.00;;;;;;4912407;28;92564;-72
2022/06/17 00:59:01;;;;;;;65.85;51.80;;;24.20;56.10;;;;;;4948205;28;91298;-71
2022/06/17 01:01:31;;;;;;;65.90;51.85;;;24.20;56.20;;;;;;4945857;28;90828;-71
2022/06/17 01:04:00;;;;;;;65.50;51.70;;;24.20;56.10;;;;;;4953548;28;92150;-71
2022/06/17 01:06:31;;;;;;;66.22;51.78;;;24.10;56.10;;;;;;4944319;28;91201;-71
2022/06/17 01:11:46;;;;;;;65.82;51.65;;;24.10;56.20;;;;;;4939848;28;92472;-71
2022/06/17 01:14:15;;;;;;;65.82;51.80;;;24.00;56.20;;;;;;4956060;28;89903;-71
2022/06/17 01:16:43;;;;;;;66.28;52.25;;;24.00;56.30;;;;;;4942467;28;90756;-72
2022/06/17 01:19:36;;;;;;;66.28;51.75;;;24.00;56.30;;;;;;4933943;28;96583;-71
2022/06/17 01:22:22;;;;;;;66.28;51.65;;;24.00;56.20;;;;;;4925857;28;91944;-71
2022/06/17 01:24:49;;;;;;;66.20;51.75;;;24.00;56.20;;;;;;4947415;28;90992;-71
2022/06/17 01:27:20;;;;;;;66.55;51.53;;;24.00;56.40;;;;;;4947763;28;90462;-71
2022/06/17 01:29:46;;;;;;;65.65;51.55;;;24.00;56.40;;;;;;4941862;28;91641;-72
2022/06/17 01:32:14;;;;;;;65.75;51.85;;;23.90;56.40;;;;;;4947748;28;91770;-71
2022/06/17 01:34:39;;;;;;;65.32;51.53;;;24.00;56.40;;;;;;4949431;28;90583;-72
2022/06/17 01:37:07;;;;;;;65.68;51.58;;;23.90;56.40;;;;;;4942802;28;89870;-71
2022/06/17 01:39:33;;;;;;;65.97;51.95;;;23.90;56.50;;;;;;4954591;28;89955;-72
2022/06/17 01:41:59;;;;;;;66.32;51.72;;;23.90;56.60;;;;;;4931719;28;89368;-71
2022/06/17 01:44:33;;;;;;;65.85;51.65;;;23.80;56.60;;;;;;4938968;28;93105;-71
2022/06/17 01:47:02;;;;;;;66.38;51.95;;;23.80;56.60;;;;;;4943941;28;97467;-71
2022/06/17 01:49:36;;;;;;;65.90;51.88;;;23.80;56.60;;;;;;4958232;28;90852;-71
2022/06/17 01:52:12;;;;;;;65.90;51.67;;;23.80;56.60;;;;;;4936219;28;90541;-71
2022/06/17 01:55:05;;;;;;;65.95;51.65;;;23.80;56.70;;;;;;4932294;28;91058;-71
2022/06/17 01:57:36;;;;;;;65.40;51.38;;;23.80;56.70;;;;;;4944618;28;90223;-72
2022/06/17 02:00:11;;;;;;;66.45;51.70;;;23.80;56.70;;;;;;4944233;28;91121;-71
2022/06/17 02:02:39;;;;;;;65.70;51.55;;;23.70;56.80;;;;;;4949344;28;91311;-71
2022/06/17 02:05:08;;;;;;;65.88;51.78;;;23.70;56.80;;;;;;4958068;28;90154;-71
2022/06/17 02:07:54;;;;;;;65.60;51.80;;;23.70;56.90;;;;;;4940755;28;89878;-71
2022/06/17 02:10:26;;;;;;;65.75;51.75;;;23.70;56.80;;;;;;4950451;28;91698;-71
2022/06/17 02:12:52;;;;;;;65.75;51.55;;;23.70;56.90;;;;;;4940350;28;91897;-71
2022/06/17 02:15:18;;;;;;;66.22;51.80;;;23.70;56.90;;;;;;4950217;28;92795;-71
2022/06/17 02:17:47;;;;;;;67.30;51.90;;;23.60;56.90;;;;;;4951352;28;91535;-71
2022/06/17 02:20:15;;;;;;;65.53;51.65;;;23.60;56.80;;;;;;4947409;28;90136;-71
2022/06/17 02:22:41;;;;;;;65.43;51.78;;;23.60;57.00;;;;;;4936683;28;91012;-71
2022/06/17 02:25:12;;;;;;;66.38;51.78;;;23.60;57.00;;;;;;4951703;28;91088;-71
2022/06/17 02:27:40;;;;;;;65.85;51.65;;;23.60;57.10;;;;;;4938268;28;90023;-71
2022/06/17 02:30:08;;;;;;;65.50;51.53;;;23.50;57.00;;;;;;4949705;28;90435;-71
2022/06/17 02:32:35;;;;;;;65.57;51.75;;;23.50;57.20;;;;;;4943717;28;89474;-71
2022/06/17 02:35:05;;;;;;;65.35;51.70;;;23.50;57.20;;;;;;4949230;28;90731;-71
2022/06/17 02:37:32;;;;;;;65.65;51.53;;;23.50;57.20;;;;;;4947762;28;93452;-71
2022/06/17 02:40:00;;;;;;;65.95;51.67;;;23.50;57.20;;;;;;4927007;28;90904;-71
2022/06/17 02:42:33;;;;;;;65.10;51.60;;;23.50;57.20;;;;;;4945913;28;89943;-71
2022/06/17 02:45:14;;;;;;;67.13;51.67;;;23.40;57.20;;;;;;4934717;28;91410;-70
2022/06/17 02:47:40;;;;;;;65.55;51.47;;;23.40;57.20;;;;;;4950917;28;91215;-71
2022/06/17 02:50:07;;;;;;;65.45;51.63;;;23.50;57.20;;;;;;4949771;28;90353;-71
2022/06/17 02:52:38;;;;;;;65.43;51.25;;;23.40;57.30;;;;;;4940373;28;89407;-71
2022/06/17 02:55:14;;;;;;;64.93;51.35;;;23.40;57.30;;;;;;4945646;28;90635;-71
2022/06/17 02:57:40;;;;;;;66.10;51.53;;;23.40;57.30;;;;;;4943014;28;89076;-71
2022/06/17 03:00:11;;;;;;;66.63;51.50;;;23.40;57.20;;;;;;4949694;28;90366;-71
2022/06/17 03:03:04;;;;;;;66.72;51.70;;;23.40;57.30;;;;;;4946248;28;95607;-71
2022/06/17 03:05:37;;;;;;;66.28;51.63;;;23.30;57.30;;;;;;4931179;28;93073;-71
2022/06/17 03:08:29;;;;;;;65.57;51.45;;;23.40;57.40;;;;;;4944317;28;90053;-71
2022/06/17 03:11:00;;;;;;;64.88;51.42;;;23.40;57.30;;;;;;4946765;28;90525;-71
2022/06/17 03:13:38;;;;;;;65.55;51.47;;;23.40;57.40;;;;;;4929878;28;91535;-71
2022/06/17 03:16:07;;;;;;;64.95;51.35;;;23.40;57.30;;;;;;4948113;28;90286;-71
2022/06/17 03:18:34;;;;;;;65.25;51.47;;;23.30;57.40;;;;;;4943030;28;90715;-72
2022/06/17 03:21:01;;;;;;;67.10;51.45;;;23.30;57.30;;;;;;4946518;28;89749;-72
2022/06/17 03:23:39;;;;;;;65.00;51.35;;;23.30;57.30;;;;;;4944059;28;89558;-71
2022/06/17 03:26:14;;;;;;;65.10;51.42;;;23.40;57.40;;;;;;4948156;28;91393;-71
2022/06/17 03:28:44;;;;;;;64.38;51.42;;;23.40;57.30;;;;;;4945840;28;90259;-71
2022/06/17 03:31:16;;;;;;;65.18;51.35;;;23.30;57.40;;;;;;4950587;28;90903;-71
2022/06/17 03:33:49;;;;;;;65.70;51.38;;;23.30;57.50;;;;;;4939292;28;91764;-71
2022/06/17 03:36:22;;;;;;;64.47;51.22;;;23.30;57.50;;;;;;4943098;28;90559;-71
2022/06/17 03:38:53;;;;;;;65.57;51.50;;;23.30;57.40;;;;;;4948903;28;91023;-71
2022/06/17 03:41:21;;;;;;;;;;;23.30;57.30;;;;;;4952677;28;92447;-72
2022/06/17 03:44:04;;;;;;;64.47;51.17;;;23.20;57.10;;;;;;4952308;28;91456;-71
2022/06/17 03:47:01;;;;;;;64.68;51.42;;;23.20;57.10;;;;;;4950425;28;90582;-71
2022/06/17 03:49:37;;;;;;;64.80;51.40;;;23.20;57.40;;;;;;4890361;28;90457;-71
2022/06/17 03:52:14;;;;;;;64.15;50.92;;;23.20;57.40;;;;;;4928064;28;90296;-71
2022/06/17 03:54:40;;;;;;;65.22;51.45;;;23.30;57.60;;;;;;4948347;28;90131;-71
2022/06/17 03:57:10;;;;;;;64.93;51.45;;;23.20;57.30;;;;;;4957383;28;92086;-71
2022/06/17 03:59:37;;;;;;;66.25;51.20;;;23.30;57.40;;;;;;4950468;28;92026;-71
2022/06/17 04:02:10;;;;;;;65.22;51.33;;;23.20;57.40;;;;;;4956242;28;90546;-71
2022/06/17 04:04:42;;;;;;;64.68;51.25;;;23.20;57.30;;;;;;4942530;28;93455;-71
2022/06/17 04:07:11;;;;;;;65.68;51.50;;;23.30;57.40;;;;;;4953534;28;89970;-71
2022/06/17 04:09:38;;;;;;;64.88;51.15;;;23.30;57.30;;;;;;4950504;28;90190;-71
2022/06/17 04:12:19;;;;;;;65.03;51.70;;;23.20;57.30;;;;;;4957313;28;89634;-71
2022/06/17 04:14:48;;;;;;;64.93;51.33;;;23.30;57.30;;;;;;4953644;28;95705;-71
2022/06/17 04:17:19;;;;;;;65.53;51.40;;;23.20;57.10;;;;;;4952842;28;90271;-71
2022/06/17 04:19:51;;;;;;;65.47;51.15;;;23.20;57.30;;;;;;4949237;28;90675;-71
2022/06/17 04:22:27;;;;;;;65.25;51.35;;;23.30;57.50;;;;;;4929833;28;93796;-71
2022/06/17 04:24:57;;;;;;;64.47;51.17;;;23.30;57.40;;;;;;4929060;28;90838;-71
2022/06/17 04:27:24;;;;;;;64.90;51.28;;;23.30;57.20;;;;;;4956394;28;93093;-71
2022/06/17 04:29:53;;;;;;;65.07;51.40;;;23.30;57.20;;;;;;4945856;28;92370;-71
2022/06/17 04:32:30;;;;;;;65.15;51.25;;;23.30;57.10;;;;;;4947336;28;90811;-71
2022/06/17 04:34:56;;;;;;;64.82;51.25;;;23.30;57.20;;;;;;4942640;28;91069;-71
2022/06/17 04:37:23;;;;;;;64.78;51.25;;;23.40;57.10;;;;;;4950884;28;90606;-71
2022/06/17 04:39:55;;;;;;;65.60;51.13;;;23.40;57.10;;;;;;4949480;28;95164;-72
2022/06/17 04:42:32;;;;;;;65.45;51.20;;;23.40;57.00;;;;;;4953809;28;90327;-71
2022/06/17 04:44:58;;;;;;;65.45;51.25;;;23.30;56.90;;;;;;4935919;28;90543;-71
2022/06/17 04:47:24;;;;;;;65.30;51.40;;;23.40;56.90;;;;;;4949979;28;91188;-71
2022/06/17 04:49:59;;;;;;;65.90;51.35;;;23.40;56.90;;;;;;4942234;28;91758;-71
2022/06/17 04:52:37;;;;;;;64.82;51.35;;;23.40;57.00;;;;;;4944959;28;91548;-71
2022/06/17 04:55:09;;;;;;;65.05;51.30;;;23.40;56.80;;;;;;4928833;28;91182;-71
2022/06/17 04:57:38;;;;;;;64.43;51.25;;;23.40;56.90;;;;;;4948644;28;90130;-71
2022/06/17 05:00:05;;;;;;;64.78;51.20;;;23.40;56.80;;;;;;4942780;28;91433;-71
2022/06/17 05:02:34;;;;;;;65.47;51.25;;;23.40;56.90;;;;;;4938771;28;90486;-71
2022/06/17 05:05:03;;;;;;;64.93;51.33;;;23.40;56.90;;;;;;4921636;28;89953;-68
2022/06/17 05:07:41;;;;;;;64.75;51.30;;;23.50;56.80;;;;;;4930319;28;90637;-69
2022/06/17 05:10:13;;;;;;;65.45;51.47;;;23.50;56.80;;;;;;4936730;28;90154;-71
2022/06/17 05:12:43;;;;;;;64.88;51.13;;;23.50;56.70;;;;;;4940076;28;91109;-71
2022/06/17 05:15:18;;;;;;;65.00;51.13;;;23.50;56.70;;;;;;4941106;28;89730;-73
2022/06/17 05:17:44;;;;;;;64.75;51.28;;;23.60;56.70;;;;;;4951863;28;90282;-71
2022/06/17 05:20:20;;;;;;;64.57;51.25;;;23.50;56.60;;;;;;4938653;28;90951;-71
2022/06/17 05:23:05;;;;;;;64.68;51.17;;;23.60;56.60;;;;;;4920929;28;90725;-69
2022/06/17 05:25:34;;;;;;;65.30;51.30;;;23.60;56.60;;;;;;4926673;28;91105;-72
2022/06/17 05:28:00;;;;;;;64.72;51.47;;;23.60;56.60;;;;;;4941787;28;91352;-71
2022/06/17 05:30:30;;;;;;;65.03;51.13;;;23.60;56.50;;;;;;4943224;28;89033;-71
2022/06/17 05:32:55;;;;;;;65.35;51.42;;;23.60;56.40;;;;;;4942370;28;90407;-72
2022/06/17 05:35:22;;;;;;;64.97;51.13;;;23.70;56.40;;;;;;4947813;28;91154;-72
2022/06/17 05:37:49;;;;;;;64.70;51.03;;;23.70;56.40;;;;;;4934266;28;94317;-72
2022/06/17 05:40:15;;;;;;;65.22;51.25;;;23.70;56.40;;;;;;4937962;28;91294;-71
2022/06/17 05:42:43;;;;;;;65.70;51.80;;;23.70;56.40;;;;;;4942189;28;90443;-70
2022/06/17 05:45:17;;;;;;;68.75;52.70;;;23.70;56.40;;;;;;4917166;28;94319;-71
2022/06/17 05:47:43;;;;;;;67.22;52.63;;;23.40;55.70;;;;;;4956056;28;90067;-71
2022/06/17 05:50:13;;;;;;;69.15;53.08;;;22.60;56.20;;;;;;4938132;28;90264;-71
2022/06/17 05:52:51;;;;;;;71.32;53.08;;;22.20;59.40;;;;;;4934079;28;91444;-71
2022/06/17 05:55:17;;;;;;;69.70;52.75;;;22.20;60.10;;;;;;4941056;28;90204;-71
2022/06/17 05:57:43;;;;;;;72.65;54.13;;;22.30;59.50;;;;;;4953371;28;89583;-71
2022/06/17 06:00:10;;;;;;;72.05;52.95;;;22.30;59.40;;;;;;4947712;28;89943;-69
2022/06/17 06:02:36;;;;;;;72.32;52.92;;;22.30;59.80;;;;;;4933538;28;90924;-71
2022/06/17 06:05:01;;;;;;;74.38;53.33;;;22.50;58.90;;;;;;4941242;28;90457;-72
2022/06/17 06:07:27;;;;;;;76.60;53.50;;;22.70;59.20;;;;;;4932112;28;91960;-72
2022/06/17 06:09:53;;;;;;;83.18;53.97;;;22.80;58.20;;;;;;4938948;28;95067;-73
2022/06/17 06:12:19;;;;;;;77.53;53.95;;;22.70;58.00;;;;;;4953352;28;91496;-71
2022/06/17 06:14:44;;;;;;;73.35;53.33;;;22.80;58.30;;;;;;4951837;28;89853;-71
2022/06/17 06:17:11;;;;;;;70.68;52.78;;;22.80;58.00;;;;;;4936037;28;90494;-71
2022/06/17 06:19:37;;;;;;;78.55;53.35;;;23.00;57.40;;;;;;4942816;28;91134;-72
2022/06/17 06:22:03;;;;;;;81.80;53.55;;;23.00;55.40;;;;;;4938831;28;91264;-71
2022/06/17 06:24:28;;;;;;;73.95;53.20;;;22.80;56.00;;;;;;4951788;28;90071;-72
2022/06/17 06:26:54;;;;;;;68.35;53.25;;;23.00;57.00;;;;;;4940991;28;96852;-71
2022/06/17 06:29:20;;;;;;;70.95;53.17;;;23.00;55.80;;;;;;4949377;28;90826;-71
2022/06/17 06:31:48;;;;;;;69.32;52.70;;;23.10;55.20;;;;;;4946306;28;91587;-72
2022/06/17 06:34:15;;;;;;;68.13;52.45;;;23.30;56.40;;;;;;4939809;28;91671;-71
2022/06/17 06:36:42;;;;;;;68.50;52.50;;;23.50;55.60;;;;;;4947618;28;90880;-72
2022/06/17 06:39:07;;;;;;;66.55;52.45;;;23.30;54.70;;;;;;4931009;28;91967;-71
2022/06/17 06:41:33;;;;;;;69.05;52.35;;;23.30;54.70;;;;;;4947665;28;90116;-71
2022/06/17 06:43:59;;;;;;;66.45;52.67;;;23.30;55.70;;;;;;4944863;28;89542;-73
2022/06/17 06:46:24;;;;;;;69.97;52.50;;;23.40;55.20;;;;;;4952597;28;92219;-71
2022/06/17 06:48:50;;;;;;;69.68;52.28;;;23.40;55.20;;;;;;4950837;28;91015;-72
2022/06/17 06:51:16;;;;;;;68.32;52.40;;;23.60;55.50;;;;;;4938622;28;93900;-71
2022/06/17 06:53:42;;;;;;;68.57;52.35;;;23.60;54.80;;;;;;4944525;28;90252;-72
2022/06/17 06:56:08;;;;;;;69.55;52.60;;;23.70;54.00;;;;;;4940276;28;90919;-71
2022/06/17 06:58:34;;;;;;;67.10;52.78;;;23.80;54.20;;;;;;4942901;28;91211;-73
2022/06/17 07:00:59;;;;;;;69.05;52.60;;;23.80;54.80;;;;;;4921620;28;95661;-70
2022/06/17 07:03:27;;;;;;;68.90;52.60;;;23.80;54.80;;;;;;4915587;28;91765;-71
2022/06/17 07:05:57;;;;;;;68.82;52.75;;;23.90;54.70;;;;;;4929896;28;93317;-71
2022/06/17 07:08:25;;;;;;;67.70;53.03;;;24.00;54.10;;;;;;4936144;28;90128;-71
2022/06/17 07:10:53;;;;;;;83.43;53.15;;;23.90;54.10;;;;;;4934840;28;95719;-71
2022/06/17 07:13:21;;;;;;;69.57;53.05;;;23.80;54.10;;;;;;4916062;28;95896;-71
2022/06/17 07:15:47;;;;;;;67.80;53.00;;;23.80;54.60;;;;;;4930085;28;91935;-71
2022/06/17 07:18:20;;;;;;;71.28;52.92;;;23.70;55.00;;;;;;4938787;28;91000;-70
2022/06/17 07:20:49;;;;;;;69.70;52.95;;;23.80;53.70;;;;;;4926535;28;90301;-71
2022/06/17 07:23:18;;;;;;;71.53;52.88;;;23.90;54.40;;;;;;4929941;28;90418;-71
2022/06/17 07:25:45;;;;;;;69.78;52.90;;;23.80;54.20;;;;;;4938807;28;90827;-69
2022/06/17 07:28:16;;;;;;;69.50;52.97;;;23.90;54.80;;;;;;4941431;28;98656;-72
2022/06/17 07:30:43;;;;;;;;;;;23.70;54.20;;;;;;4937518;28;91190;-71
2022/06/17 07:33:09;;;;;;;71.35;52.50;;;23.80;54.60;;;;;;4934631;28;90149;-70
2022/06/17 07:35:35;;;;;;;69.50;52.88;;;23.80;54.20;;;;;;4939654;28;90308;-72
2022/06/17 07:40:47;;;;;;;71.13;53.20;;;24.00;54.60;;;;;;4930568;28;93669;-71
2022/06/17 07:43:15;;;;;;;73.53;53.22;;;24.00;54.50;;;;;;4943103;28;90897;-71
2022/06/17 07:45:40;;;;;;;72.53;52.97;;;24.10;55.10;;;;;;4934489;28;90676;-72
2022/06/17 07:48:07;;;;;;;69.50;52.85;;;24.10;54.80;;;;;;4936866;28;91885;-72
2022/06/17 07:50:33;;;;;;;68.07;53.05;;;24.00;54.60;;;;;;4950182;28;89702;-72
2022/06/17 07:52:59;;;;;;;68.75;52.90;;;24.00;55.10;;;;;;4930152;28;91206;-72
2022/06/17 07:55:25;;;;;;;67.40;52.88;;;24.00;55.00;;;;;;4927421;28;90947;-72
2022/06/17 07:57:51;;;;;;;67.88;52.58;;;24.10;55.30;;;;;;4913393;28;93918;-72
2022/06/17 08:00:27;;;;;;;70.10;52.95;;;24.10;55.70;;;;;;4941706;28;90275;-72
2022/06/17 08:02:53;;;;;;;69.13;53.08;;;24.20;55.30;;;;;;4942329;28;90315;-73
2022/06/17 08:05:21;;;;;;;70.30;53.22;;;24.10;55.10;;;;;;4943981;28;95302;-70
2022/06/17 08:07:48;;;;;;;70.82;53.17;;;24.20;55.10;;;;;;4910591;28;92724;-74
2022/06/17 08:10:17;;;;;;;75.20;53.95;;;24.20;54.60;;;;;;4921576;28;90815;-70
2022/06/17 08:12:43;;;;;;;75.32;53.92;;;24.20;55.10;;;;;;4941910;28;89712;-72
2022/06/17 08:15:09;;;;;;;73.57;53.55;;;24.30;54.90;;;;;;4929634;28;90198;-68
2022/06/17 08:17:35;;;;;;;73.30;53.72;;;24.30;55.00;;;;;;4941735;28;95149;-72
2022/06/17 08:20:01;;;;;;;70.35;53.42;;;24.30;55.60;;;;;;4937049;28;90481;-73
2022/06/17 08:22:26;;;;;;;74.47;54.10;;;24.40;55.10;;;;;;4918202;28;89585;-73
2022/06/17 08:24:57;;;;;;;71.47;53.60;;;24.40;54.40;;;;;;4940028;28;91005;-72
2022/06/17 08:27:23;;;;;;;;;;;24.40;54.70;;;;;;4907014;28;91432;-73
2022/06/17 08:29:51;;;;;;;68.50;53.03;;;24.50;55.30;;;;;;4926509;28;92963;-73
2022/06/17 08:35:01;;;;;;;72.85;53.83;;;24.50;54.90;;;;;;4935800;28;90196;-72
2022/06/17 08:37:28;;;;;;;76.55;54.70;;;24.50;55.30;;;;;;4923848;28;91691;-73
2022/06/17 08:39:55;;;;;;;70.32;53.47;;;24.50;55.50;;;;;;4947377;28;91568;-71
2022/06/17 08:42:45;;;;;;;74.88;53.83;;;24.50;55.40;;;;;;4922918;28;91198;-73
2022/06/17 08:45:13;;;;;;;71.43;53.38;;;24.60;55.30;;;;;;4943222;28;91404;-73
2022/06/17 08:47:55;;;;;;;74.30;53.83;;;24.60;55.10;;;;;;4946891;28;91553;-72
2022/06/17 08:50:23;;;;;;;71.15;53.65;;;24.60;55.20;;;;;;4950371;28;90061;-73
2022/06/17 08:53:30;;;;;;;71.93;53.38;;;24.70;55.30;;;;;;4942655;28;91422;-72
2022/06/17 08:56:27;;;;;;;69.65;53.15;;;24.70;54.80;;;;;;4937319;28;93056;-71
2022/06/17 08:59:07;;;;;;;71.78;53.22;;;24.70;55.20;;;;;;4940947;28;90992;-73
2022/06/17 09:02:21;;;;;;;69.18;53.13;;;24.70;55.10;;;;;;4941455;28;90950;-71
2022/06/17 09:04:58;;;;;;;67.95;52.78;;;24.70;55.00;;;;;;4884638;28;90219;-72
2022/06/17 09:07:32;;;;;;;68.85;53.10;;;24.70;55.00;;;;;;4874263;28;93247;-72
2022/06/17 09:09:58;;;;;;;69.55;53.15;;;24.70;55.20;;;;;;4913900;28;92416;-72
2022/06/17 09:12:42;;;;;;;71.13;53.28;;;24.80;55.10;;;;;;4949739;28;89897;-71
2022/06/17 09:15:34;;;;;;;69.20;52.78;;;24.80;54.70;;;;;;4940441;28;94102;-72
2022/06/17 09:18:24;;;;;;;70.25;52.83;;;24.90;54.50;;;;;;4931071;28;94695;-72
2022/06/17 09:20:55;;;;;;;72.68;53.33;;;24.90;54.70;;;;;;4943020;28;90377;-69
2022/06/17 09:23:25;;;;;;;69.20;53.13;;;24.90;54.80;;;;;;4941412;28;92210;-72
2022/06/17 09:25:53;;;;;;;68.63;52.67;;;24.90;54.90;;;;;;4945469;28;90333;-72
2022/06/17 09:28:29;;;;;;;69.10;52.75;;;24.90;54.60;;;;;;4941565;28;91888;-72
2022/06/17 09:31:10;;;;;;;71.13;53.38;;;25.00;54.60;;;;;;4939749;28;89968;-71
2022/06/17 09:33:42;;;;;;;;;;;24.90;55.00;;;;;;4936453;28;90155;-72
2022/06/17 09:36:16;;;;;;;;;;;24.90;54.70;;;;;;4949228;28;90424;-72
2022/06/17 09:39:01;;;;;;;70.95;53.22;;;24.90;54.90;;;;;;4936122;28;92428;-72
2022/06/17 09:41:45;;;;;;;69.88;52.70;;;24.90;54.60;;;;;;4945650;28;90058;-72
2022/06/17 09:44:30;;;;;;;70.82;53.20;;;25.00;54.40;;;;;;4911450;28;95525;-72
2022/06/17 09:47:24;;;;;;;71.00;53.13;;;25.00;54.20;;;;;;4940377;28;91711;-71
2022/06/17 09:50:07;;;;;;;71.43;52.75;;;25.00;54.60;;;;;;4918134;28;92225;-74
2022/06/17 09:52:40;;;;;;;69.65;53.20;;;25.00;55.20;;;;;;4936816;28;90936;-72
2022/06/17 09:55:25;;;;;;;69.28;52.92;;;25.00;55.10;;;;;;4935357;28;91591;-74
2022/06/17 09:58:06;;;;;;;68.15;52.90;;;25.10;55.10;;;;;;4938839;28;90924;-73
2022/06/17 10:00:43;;;;;;;68.93;53.00;;;25.10;55.10;;;;;;4925102;28;91963;-73
2022/06/17 10:03:15;;;;;;;68.38;52.85;;;25.10;55.00;;;;;;4943296;28;90826;-75
2022/06/17 10:05:59;;;;;;;74.18;52.97;;;25.10;55.00;;;;;;4950160;28;90111;-73
2022/06/17 10:08:42;;;;;;;68.90;53.13;;;25.00;56.70;;;;;;4952321;28;92185;-73
2022/06/17 10:11:29;;;;;;;68.43;52.78;;;25.10;57.80;;;;;;4948173;28;90182;-73
2022/06/17 10:13:55;;;;;;;69.10;53.13;;;25.10;58.30;;;;;;4933159;28;93361;-73
2022/06/17 10:19:47;;;;;;;71.68;53.08;;;25.20;57.60;;;;;;4942481;28;90452;-73
2022/06/17 10:22:39;;;;;;;69.22;53.28;;;25.20;56.70;;;;;;4949368;28;90169;-71
2022/06/17 10:25:25;;;;;;;67.85;52.72;;;25.20;57.20;;;;;;4939896;28;90987;-73
2022/06/17 10:28:01;;;;;;;69.65;52.78;;;25.20;55.80;;;;;;4938551;28;91192;-73
2022/06/17 10:31:00;;;;;;;72.30;53.28;;;25.20;57.20;;;;;;4919578;28;91550;-73
2022/06/17 10:33:31;;;;;;;67.60;52.90;;;25.10;55.60;;;;;;4951367;28;90555;-73
2022/06/17 10:36:04;;;;;;;70.05;53.05;;;25.20;56.00;;;;;;4945753;28;90597;-70
2022/06/17 10:38:39;;;;;;;69.55;53.17;;;25.20;55.90;;;;;;4953796;28;89809;-72
2022/06/17 10:41:08;;;;;;;67.82;52.78;;;25.20;55.80;;;;;;4938127;28;89559;-74
2022/06/17 10:43:44;;;;;;;68.45;52.83;;;25.30;55.80;;;;;;4928091;28;91220;-72
2022/06/17 10:46:25;;;;;;;68.60;52.80;;;25.20;55.30;;;;;;4943995;28;92386;-73
2022/06/17 10:49:11;;;;;;;69.38;52.95;;;25.20;55.60;;;;;;4948772;28;91977;-73
2022/06/17 10:51:39;;;;;;;69.63;52.72;;;25.30;56.40;;;;;;4948937;28;89972;-72
2022/06/17 10:54:19;;;;;;;71.45;52.80;;;25.30;56.00;;;;;;4949560;28;92806;-73
2022/06/17 10:57:04;;;;;;;67.72;52.63;;;25.30;55.90;;;;;;4947879;28;92054;-73
2022/06/17 10:59:41;;;;;;;71.50;53.08;;;25.30;56.20;;;;;;4951061;28;89975;-73
2022/06/17 11:02:31;;;;;;;68.97;53.03;;;25.40;55.90;;;;;;4953922;28;89036;-72
2022/06/17 11:05:01;;;;;;;69.97;52.80;;;25.40;55.60;;;;;;4949525;28;90403;-72
2022/06/17 11:07:48;;;;;;;68.20;52.88;;;25.30;55.40;;;;;;4952980;28;90683;-71
2022/06/17 11:10:14;;;;;;;68.90;52.72;;;25.40;55.50;;;;;;4921627;28;93114;-72
2022/06/17 11:12:43;;;;;;;67.65;52.63;;;25.40;55.20;;;;;;4917020;28;95398;-73
2022/06/17 11:15:44;;;;;;;69.63;52.90;;;25.40;55.30;;;;;;4939070;28;91539;-72
2022/06/17 11:18:32;;;;;;;68.38;52.90;;;25.40;55.20;;;;;;4944620;28;91610;-74
2022/06/17 11:21:08;;;;;;;68.03;52.72;;;25.40;54.40;;;;;;4934360;28;90306;-75
2022/06/17 11:23:44;;;;;;;71.25;52.75;;;25.50;55.40;;;;;;4933836;28;90536;-75
2022/06/17 11:26:12;;;;;;;70.35;52.70;;;25.50;55.60;;;;;;4940537;28;90264;-75
2022/06/17 11:28:42;;;;;;;68.82;53.00;;;25.50;55.60;;;;;;4927912;28;92754;-74
2022/06/17 11:31:19;;;;;;;67.93;52.90;;;25.50;55.50;;;;;;4940022;28;90555;-74
2022/06/17 11:34:01;;;;;;;73.15;53.10;;;25.50;55.70;;;;;;4945211;28;90221;-73
2022/06/17 11:36:49;;;;;;;70.88;52.78;;;25.50;54.40;;;;;;4925778;28;91331;-74
2022/06/17 11:39:34;;;;;;;68.30;52.90;;;25.50;55.20;;;;;;4935822;28;96080;-75
2022/06/17 11:42:19;;;;;;;68.07;52.70;;;25.60;55.30;;;;;;4947817;28;90465;-75
2022/06/17 11:44:55;;;;;;;70.97;53.03;;;25.60;55.10;;;;;;4949580;28;91795;-75
2022/06/17 11:47:24;;;;;;;71.95;52.75;;;25.60;55.20;;;;;;4950506;28;96521;-75
2022/06/17 11:49:52;;;;;;;70.60;52.90;;;25.60;54.80;;;;;;4947601;28;90244;-75
2022/06/17 11:52:33;;;;;;;69.97;53.25;;;25.70;55.40;;;;;;4949244;28;90235;-74
2022/06/17 11:55:00;;;;;;;69.68;52.70;;;25.60;55.20;;;;;;4938235;28;91080;-74
2022/06/17 11:57:32;;;;;;;69.00;52.90;;;25.60;55.10;;;;;;4922923;28;90908;-75
2022/06/17 12:00:05;;;;;;;69.85;52.97;;;25.70;54.80;;;;;;4946006;28;97247;-74
2022/06/17 12:02:31;;;;;;;72.88;52.70;;;25.70;55.40;;;;;;4950744;28;90750;-75
2022/06/17 12:05:28;;;;;;;68.93;53.00;;;25.70;55.50;;;;;;4943947;28;91007;-75
2022/06/17 12:08:10;;;;;;;69.07;53.05;;;25.70;55.70;;;;;;4946923;28;90687;-74
2022/06/17 12:10:46;;;;;;;71.03;52.90;;;25.70;55.30;;;;;;4950100;28;91046;-75
2022/06/17 12:13:23;;;;;;;70.57;53.08;;;25.70;55.20;;;;;;4952224;28;91084;-74
2022/06/17 12:16:14;;;;;;;70.25;53.00;;;25.80;55.20;;;;;;4959578;28;90418;-74
2022/06/17 12:18:47;;;;;;;68.65;53.20;;;25.80;55.10;;;;;;4950712;28;90414;-75
2022/06/17 12:21:25;;;;;;;71.25;53.28;;;25.80;55.30;;;;;;4941224;28;93403;-75
2022/06/17 12:24:00;;;;;;;69.22;53.15;;;25.80;55.40;;;;;;4939014;28;94446;-75
2022/06/17 12:26:28;;;;;;;68.93;53.15;;;25.80;55.60;;;;;;4928030;28;96370;-73
2022/06/17 12:29:20;;;;;;;69.30;53.22;;;25.80;55.60;;;;;;4933594;28;92376;-76
2022/06/17 12:31:54;;;;;;;69.63;53.08;;;25.80;55.70;;;;;;4942208;28;92579;-74
2022/06/17 12:34:37;;;;;;;69.57;53.25;;;25.80;55.80;;;;;;4930915;28;90731;-76
2022/06/17 12:37:41;;;;;;;68.57;53.35;;;25.80;56.00;;;;;;4948811;28;90548;-75
2022/06/17 12:40:10;;;;;;;69.88;53.13;;;25.80;56.10;;;;;;4941121;28;91907;-73
2022/06/17 12:42:44;;;;;;;68.57;53.22;;;25.80;56.20;;;;;;4926495;28;90021;-74
2022/06/17 12:45:28;;;;;;;68.78;53.13;;;25.80;56.60;;;;;;4944851;28;92184;-73
2022/06/17 12:47:57;;;;;;;69.05;53.17;;;25.80;56.80;;;;;;4952757;28;89712;-73
2022/06/17 12:53:36;;;;;;;67.68;52.85;;;25.90;57.10;;;;;;4948190;28;90526;-73
2022/06/17 12:56:31;;;;;;;68.03;53.03;;;25.90;57.30;;;;;;4933157;28;91482;-75
2022/06/17 12:59:10;;;;;;;70.18;53.30;;;25.90;57.40;;;;;;4941822;28;90805;-75
2022/06/17 13:01:56;;;;;;;68.45;52.83;;;25.90;57.30;;;;;;4933909;28;94361;-75
2022/06/17 13:04:50;;;;;;;70.47;53.22;;;25.90;57.20;;;;;;4948315;28;91773;-75
2022/06/17 13:07:27;;;;;;;69.20;53.13;;;25.90;57.20;;;;;;4945681;28;90058;-75
2022/06/17 13:13:11;;;;;;;68.13;53.00;;;26.00;57.00;;;;;;4945577;28;90442;-75
2022/06/17 13:15:49;;;;;;;69.72;53.05;;;26.00;57.00;;;;;;4947045;28;90830;-75